sensor_id;sensor_type;location;lat;lon;timestamp;temperature;humidity
12386;DHT22;6257;57.634;18.310;2023-05-13T00:07:06;5.90;99.90
12386;DHT22;6257;57.634;18.310;2023-05-13T00:09:34;5.90;99.90
12386;DHT22;6257;57.634;18.310;2023-05-13T00:12:01;6.10;98.50
12386;DHT22;6257;57.634;18.310;2023-05-13T00:14:29;6.30;97.90
12386;DHT22;6257;57.634;18.310;2023-05-13T00:16:56;6.40;98.20
12386;DHT22;6257;57.634;18.310;2023-05-13T00:19:25;6.50;98.30
12386;DHT22;6257;57.634;18.310;2023-05-13T00:21:52;6.50;98.20
12386;DHT22;6257;57.634;18.310;2023-05-13T00:24:19;6.60;97.90
12386;DHT22;6257;57.634;18.310;2023-05-13T00:26:47;6.60;97.80
12386;DHT22;6257;57.634;18.310;2023-05-13T00:29:14;6.60;98.00
12386;DHT22;6257;57.634;18.310;2023-05-13T00:31:41;6.60;98.10
12386;DHT22;6257;57.634;18.310;2023-05-13T00:34:08;6.50;98.30
12386;DHT22;6257;57.634;18.310;2023-05-13T00:36:37;6.50;98.30
12386;DHT22;6257;57.634;18.310;2023-05-13T00:39:04;6.40;98.60
12386;DHT22;6257;57.634;18.310;2023-05-13T00:41:31;6.40;99.10
12386;DHT22;6257;57.634;18.310;2023-05-13T00:43:58;5.90;99.10
12386;DHT22;6257;57.634;18.310;2023-05-13T00:46:30;6.30;99.40
12386;DHT22;6257;57.634;18.310;2023-05-13T00:48:57;6.30;99.50
12386;DHT22;6257;57.634;18.310;2023-05-13T00:51:25;6.30;99.60
12386;DHT22;6257;57.634;18.310;2023-05-13T00:53:54;6.20;99.80
12386;DHT22;6257;57.634;18.310;2023-05-13T00:56:24;6.20;99.80
12386;DHT22;6257;57.634;18.310;2023-05-13T00:58:52;6.20;99.90
12386;DHT22;6257;57.634;18.310;2023-05-13T01:01:24;6.20;99.90
12386;DHT22;6257;57.634;18.310;2023-05-13T01:04:00;6.20;99.90
12386;DHT22;6257;57.634;18.310;2023-05-13T01:10:04;6.10;99.90
12386;DHT22;6257;57.634;18.310;2023-05-13T01:31:09;6.10;99.90
12386;DHT22;6257;57.634;18.310;2023-05-13T01:33:37;6.10;99.90
12386;DHT22;6257;57.634;18.310;2023-05-13T01:36:05;6.10;99.90
12386;DHT22;6257;57.634;18.310;2023-05-13T01:38:33;6.10;99.90
12386;DHT22;6257;57.634;18.310;2023-05-13T01:41:03;6.10;99.90
12386;DHT22;6257;57.634;18.310;2023-05-13T01:43:30;6.10;99.90
12386;DHT22;6257;57.634;18.310;2023-05-13T01:45:57;6.10;99.90
12386;DHT22;6257;57.634;18.310;2023-05-13T02:25:33;5.60;99.90
12386;DHT22;6257;57.634;18.310;2023-05-13T02:28:00;5.50;99.90
12386;DHT22;6257;57.634;18.310;2023-05-13T02:30:27;2.80;99.90
12386;DHT22;6257;57.634;18.310;2023-05-13T02:32:56;5.40;99.90
12386;DHT22;6257;57.634;18.310;2023-05-13T02:37:54;5.40;99.90
12386;DHT22;6257;57.634;18.310;2023-05-13T02:42:50;5.40;99.90
12386;DHT22;6257;57.634;18.310;2023-05-13T02:45:17;5.40;99.90
12386;DHT22;6257;57.634;18.310;2023-05-13T02:47:45;5.40;99.90
12386;DHT22;6257;57.634;18.310;2023-05-13T02:52:39;5.40;99.90
12386;DHT22;6257;57.634;18.310;2023-05-13T02:57:35;5.50;99.90
12386;DHT22;6257;57.634;18.310;2023-05-13T03:00:05;5.40;99.90
12386;DHT22;6257;57.634;18.310;2023-05-13T03:02:33;5.50;99.90
12386;DHT22;6257;57.634;18.310;2023-05-13T03:05:00;5.50;99.90
12386;DHT22;6257;57.634;18.310;2023-05-13T03:07:27;5.60;99.90
12386;DHT22;6257;57.634;18.310;2023-05-13T03:09:54;5.60;99.90
12386;DHT22;6257;57.634;18.310;2023-05-13T03:12:21;5.60;99.90
12386;DHT22;6257;57.634;18.310;2023-05-13T03:14:49;5.70;99.90
12386;DHT22;6257;57.634;18.310;2023-05-13T03:17:17;5.80;99.90
12386;DHT22;6257;57.634;18.310;2023-05-13T03:19:44;5.80;99.90
12386;DHT22;6257;57.634;18.310;2023-05-13T03:22:11;5.80;99.90
12386;DHT22;6257;57.634;18.310;2023-05-13T03:24:39;5.90;99.90
12386;DHT22;6257;57.634;18.310;2023-05-13T03:32:03;6.20;99.90
12386;DHT22;6257;57.634;18.310;2023-05-13T03:39:28;6.40;99.90
12386;DHT22;6257;57.634;18.310;2023-05-13T03:41:55;6.50;99.90
12386;DHT22;6257;57.634;18.310;2023-05-13T03:49:17;7.10;99.90
12386;DHT22;6257;57.634;18.310;2023-05-13T04:04:03;8.10;99.90
12386;DHT22;6257;57.634;18.310;2023-05-13T04:06:30;8.20;99.90
12386;DHT22;6257;57.634;18.310;2023-05-13T04:08:59;8.30;99.90
12386;DHT22;6257;57.634;18.310;2023-05-13T04:11:29;8.50;99.90
12386;DHT22;6257;57.634;18.310;2023-05-13T04:13:56;8.70;99.90
12386;DHT22;6257;57.634;18.310;2023-05-13T04:16:23;8.90;99.90
12386;DHT22;6257;57.634;18.310;2023-05-13T04:18:51;9.20;99.90
12386;DHT22;6257;57.634;18.310;2023-05-13T04:28:41;10.00;98.10
12386;DHT22;6257;57.634;18.310;2023-05-13T04:31:08;10.20;97.00
12386;DHT22;6257;57.634;18.310;2023-05-13T04:36:04;10.60;96.20
12386;DHT22;6257;57.634;18.310;2023-05-13T04:38:31;10.90;95.80
12386;DHT22;6257;57.634;18.310;2023-05-13T04:40:58;11.00;95.50
12386;DHT22;6257;57.634;18.310;2023-05-13T04:43:26;11.20;94.70
12386;DHT22;6257;57.634;18.310;2023-05-13T04:45:54;11.30;94.70
12386;DHT22;6257;57.634;18.310;2023-05-13T04:48:21;13.60;95.00
12386;DHT22;6257;57.634;18.310;2023-05-13T04:50:49;11.70;93.30
12386;DHT22;6257;57.634;18.310;2023-05-13T04:53:17;11.80;93.70
12386;DHT22;6257;57.634;18.310;2023-05-13T04:55:45;11.90;92.90
12386;DHT22;6257;57.634;18.310;2023-05-13T04:58:12;12.00;93.10
12386;DHT22;6257;57.634;18.310;2023-05-13T05:03:08;12.30;92.30
12386;DHT22;6257;57.634;18.310;2023-05-13T05:05:35;12.40;92.60
12386;DHT22;6257;57.634;18.310;2023-05-13T05:08:03;12.60;92.10
12386;DHT22;6257;57.634;18.310;2023-05-13T05:10:30;12.70;92.10
12386;DHT22;6257;57.634;18.310;2023-05-13T05:12:58;12.90;91.20
12386;DHT22;6257;57.634;18.310;2023-05-13T05:15:25;13.00;90.80
12386;DHT22;6257;57.634;18.310;2023-05-13T05:20:23;14.80;91.30
12386;DHT22;6257;57.634;18.310;2023-05-13T05:25:18;13.40;91.30
12386;DHT22;6257;57.634;18.310;2023-05-13T05:30:13;13.60;91.00
12386;DHT22;6257;57.634;18.310;2023-05-13T05:32:40;13.70;90.50
12386;DHT22;6257;57.634;18.310;2023-05-13T05:35:10;13.90;90.30
12386;DHT22;6257;57.634;18.310;2023-05-13T05:37:38;13.90;90.50
12386;DHT22;6257;57.634;18.310;2023-05-13T05:42:33;14.20;88.90
12386;DHT22;6257;57.634;18.310;2023-05-13T05:45:00;14.30;88.80
12386;DHT22;6257;57.634;18.310;2023-05-13T05:47:27;14.40;90.40
12386;DHT22;6257;57.634;18.310;2023-05-13T05:49:54;14.50;89.80
12386;DHT22;6257;57.634;18.310;2023-05-13T05:54:50;14.80;86.70
12386;DHT22;6257;57.634;18.310;2023-05-13T05:57:17;14.90;86.70
12386;DHT22;6257;57.634;18.310;2023-05-13T05:59:44;15.00;85.10
12386;DHT22;6257;57.634;18.310;2023-05-13T06:02:11;15.10;85.60
12386;DHT22;6257;57.634;18.310;2023-05-13T06:04:39;15.20;83.50
12386;DHT22;6257;57.634;18.310;2023-05-13T06:07:06;15.20;83.80
12386;DHT22;6257;57.634;18.310;2023-05-13T06:09:35;15.30;81.80
12386;DHT22;6257;57.634;18.310;2023-05-13T06:12:03;15.50;81.80
12386;DHT22;6257;57.634;18.310;2023-05-13T06:14:30;15.50;82.40
12386;DHT22;6257;57.634;18.310;2023-05-13T06:16:57;15.60;77.50
12386;DHT22;6257;57.634;18.310;2023-05-13T06:19:24;15.70;78.30
12386;DHT22;6257;57.634;18.310;2023-05-13T06:21:51;15.70;77.20
12386;DHT22;6257;57.634;18.310;2023-05-13T06:24:18;15.90;79.90
12386;DHT22;6257;57.634;18.310;2023-05-13T06:26:47;15.90;77.70
12386;DHT22;6257;57.634;18.310;2023-05-13T06:29:14;16.00;78.20
12386;DHT22;6257;57.634;18.310;2023-05-13T06:31:42;16.00;78.50
12386;DHT22;6257;57.634;18.310;2023-05-13T06:34:09;16.10;77.20
12386;DHT22;6257;57.634;18.310;2023-05-13T06:36:41;16.20;77.70
12386;DHT22;6257;57.634;18.310;2023-05-13T06:39:08;16.30;76.30
12386;DHT22;6257;57.634;18.310;2023-05-13T06:41:36;16.40;78.50
12386;DHT22;6257;57.634;18.310;2023-05-13T06:44:05;16.50;77.60
12386;DHT22;6257;57.634;18.310;2023-05-13T06:46:32;16.60;77.30
12386;DHT22;6257;57.634;18.310;2023-05-13T06:48:59;16.60;80.00
12386;DHT22;6257;57.634;18.310;2023-05-13T06:51:26;16.60;77.10
12386;DHT22;6257;57.634;18.310;2023-05-13T06:53:55;16.80;78.30
12386;DHT22;6257;57.634;18.310;2023-05-13T06:56:22;16.80;78.70
12386;DHT22;6257;57.634;18.310;2023-05-13T07:01:19;17.20;77.50
12386;DHT22;6257;57.634;18.310;2023-05-13T07:03:46;17.50;80.90
12386;DHT22;6257;57.634;18.310;2023-05-13T07:06:13;17.90;76.30
12386;DHT22;6257;57.634;18.310;2023-05-13T07:08:40;18.00;76.60
12386;DHT22;6257;57.634;18.310;2023-05-13T07:11:07;18.40;77.00
12386;DHT22;6257;57.634;18.310;2023-05-13T07:13:34;18.60;77.90
12386;DHT22;6257;57.634;18.310;2023-05-13T07:16:02;18.80;74.00
12386;DHT22;6257;57.634;18.310;2023-05-13T07:18:30;19.00;72.50
12386;DHT22;6257;57.634;18.310;2023-05-13T07:20:57;19.20;74.90
12386;DHT22;6257;57.634;18.310;2023-05-13T07:23:24;19.50;71.50
12386;DHT22;6257;57.634;18.310;2023-05-13T07:25:52;19.70;71.60
12386;DHT22;6257;57.634;18.310;2023-05-13T07:28:19;19.90;71.60
12386;DHT22;6257;57.634;18.310;2023-05-13T07:30:46;20.20;70.10
12386;DHT22;6257;57.634;18.310;2023-05-13T07:33:13;20.40;70.80
12386;DHT22;6257;57.634;18.310;2023-05-13T07:38:09;20.60;69.20
12386;DHT22;6257;57.634;18.310;2023-05-13T07:40:37;20.70;69.80
12386;DHT22;6257;57.634;18.310;2023-05-13T07:43:04;21.10;69.60
12386;DHT22;6257;57.634;18.310;2023-05-13T07:45:31;21.50;68.20
12386;DHT22;6257;57.634;18.310;2023-05-13T07:47:59;21.80;69.30
12386;DHT22;6257;57.634;18.310;2023-05-13T07:50:26;22.00;70.20
12386;DHT22;6257;57.634;18.310;2023-05-13T07:52:54;22.30;67.70
12386;DHT22;6257;57.634;18.310;2023-05-13T07:55:22;22.70;68.60
12386;DHT22;6257;57.634;18.310;2023-05-13T07:57:49;23.10;66.40
12386;DHT22;6257;57.634;18.310;2023-05-13T08:00:16;23.40;67.50
12386;DHT22;6257;57.634;18.310;2023-05-13T08:02:43;24.00;62.70
12386;DHT22;6257;57.634;18.310;2023-05-13T08:05:10;23.60;63.70
12386;DHT22;6257;57.634;18.310;2023-05-13T08:07:37;22.80;61.40
12386;DHT22;6257;57.634;18.310;2023-05-13T08:10:07;23.70;64.80
12386;DHT22;6257;57.634;18.310;2023-05-13T08:12:34;24.50;59.40
12386;DHT22;6257;57.634;18.310;2023-05-13T08:15:01;24.60;61.10
12386;DHT22;6257;57.634;18.310;2023-05-13T08:17:29;24.50;60.00
12386;DHT22;6257;57.634;18.310;2023-05-13T08:19:56;25.10;59.30
12386;DHT22;6257;57.634;18.310;2023-05-13T08:22:24;25.60;61.00
12386;DHT22;6257;57.634;18.310;2023-05-13T08:24:52;25.90;57.70
12386;DHT22;6257;57.634;18.310;2023-05-13T08:29:48;26.70;55.50
12386;DHT22;6257;57.634;18.310;2023-05-13T08:32:15;26.90;54.60
12386;DHT22;6257;57.634;18.310;2023-05-13T08:34:43;26.50;56.40
12386;DHT22;6257;57.634;18.310;2023-05-13T08:37:10;25.90;57.80
12386;DHT22;6257;57.634;18.310;2023-05-13T08:39:37;26.90;54.70
12386;DHT22;6257;57.634;18.310;2023-05-13T08:42:07;28.10;53.50
12386;DHT22;6257;57.634;18.310;2023-05-13T08:44:38;27.70;53.30
12386;DHT22;6257;57.634;18.310;2023-05-13T08:47:12;27.70;53.40
12386;DHT22;6257;57.634;18.310;2023-05-13T08:49:41;27.60;54.30
12386;DHT22;6257;57.634;18.310;2023-05-13T08:52:08;26.90;53.80
12386;DHT22;6257;57.634;18.310;2023-05-13T08:54:36;26.20;55.70
12386;DHT22;6257;57.634;18.310;2023-05-13T08:57:04;24.80;58.40
12386;DHT22;6257;57.634;18.310;2023-05-13T08:59:31;23.40;57.60
12386;DHT22;6257;57.634;18.310;2023-05-13T09:02:00;22.30;61.40
12386;DHT22;6257;57.634;18.310;2023-05-13T09:04:28;21.50;62.20
12386;DHT22;6257;57.634;18.310;2023-05-13T09:06:56;20.90;59.70
12386;DHT22;6257;57.634;18.310;2023-05-13T09:09:24;20.30;62.80
12386;DHT22;6257;57.634;18.310;2023-05-13T09:11:51;20.00;62.40
12386;DHT22;6257;57.634;18.310;2023-05-13T09:14:19;19.80;63.50
12386;DHT22;6257;57.634;18.310;2023-05-13T09:16:46;19.40;65.90
12386;DHT22;6257;57.634;18.310;2023-05-13T09:21:43;19.30;64.60
12386;DHT22;6257;57.634;18.310;2023-05-13T09:24:11;19.20;65.10
12386;DHT22;6257;57.634;18.310;2023-05-13T09:26:43;19.00;67.80
12386;DHT22;6257;57.634;18.310;2023-05-13T09:29:17;18.90;64.90
12386;DHT22;6257;57.634;18.310;2023-05-13T09:31:45;18.90;67.20
12386;DHT22;6257;57.634;18.310;2023-05-13T09:34:15;18.90;68.30
12386;DHT22;6257;57.634;18.310;2023-05-13T09:36:58;18.80;66.20
12386;DHT22;6257;57.634;18.310;2023-05-13T09:39:25;18.80;67.70
12386;DHT22;6257;57.634;18.310;2023-05-13T09:41:52;18.80;69.60
12386;DHT22;6257;57.634;18.310;2023-05-13T09:44:20;18.90;66.70
12386;DHT22;6257;57.634;18.310;2023-05-13T09:46:50;18.80;64.80
12386;DHT22;6257;57.634;18.310;2023-05-13T09:49:23;18.90;64.00
12386;DHT22;6257;57.634;18.310;2023-05-13T09:51:51;18.60;64.50
12386;DHT22;6257;57.634;18.310;2023-05-13T09:54:19;18.60;64.60
12386;DHT22;6257;57.634;18.310;2023-05-13T09:56:47;18.40;65.80
12386;DHT22;6257;57.634;18.310;2023-05-13T09:59:14;18.20;68.10
12386;DHT22;6257;57.634;18.310;2023-05-13T10:01:42;18.20;66.20
12386;DHT22;6257;57.634;18.310;2023-05-13T10:06:38;18.20;67.10
12386;DHT22;6257;57.634;18.310;2023-05-13T10:09:08;18.10;68.90
12386;DHT22;6257;57.634;18.310;2023-05-13T10:11:35;18.10;69.30
12386;DHT22;6257;57.634;18.310;2023-05-13T10:14:05;18.10;67.70
12386;DHT22;6257;57.634;18.310;2023-05-13T10:16:32;18.00;67.90
12386;DHT22;6257;57.634;18.310;2023-05-13T10:19:00;18.00;67.60
12386;DHT22;6257;57.634;18.310;2023-05-13T10:21:28;17.70;69.30
12386;DHT22;6257;57.634;18.310;2023-05-13T10:23:58;17.50;70.00
12386;DHT22;6257;57.634;18.310;2023-05-13T10:26:26;17.40;69.80
12386;DHT22;6257;57.634;18.310;2023-05-13T10:28:55;17.40;70.60
12386;DHT22;6257;57.634;18.310;2023-05-13T10:31:23;17.40;72.50
12386;DHT22;6257;57.634;18.310;2023-05-13T10:33:52;17.40;71.80
12386;DHT22;6257;57.634;18.310;2023-05-13T10:39:31;17.50;69.30
12386;DHT22;6257;57.634;18.310;2023-05-13T10:42:26;17.50;71.00
12386;DHT22;6257;57.634;18.310;2023-05-13T10:44:57;17.30;68.20
12386;DHT22;6257;57.634;18.310;2023-05-13T10:47:24;17.20;70.30
12386;DHT22;6257;57.634;18.310;2023-05-13T10:49:52;17.30;70.60
12386;DHT22;6257;57.634;18.310;2023-05-13T10:52:20;17.20;69.50
12386;DHT22;6257;57.634;18.310;2023-05-13T10:54:59;17.00;69.40
12386;DHT22;6257;57.634;18.310;2023-05-13T10:57:29;16.90;71.20
12386;DHT22;6257;57.634;18.310;2023-05-13T11:00:12;16.90;68.50
12386;DHT22;6257;57.634;18.310;2023-05-13T11:07:39;17.20;69.80
12386;DHT22;6257;57.634;18.310;2023-05-13T11:10:26;17.20;69.60
12386;DHT22;6257;57.634;18.310;2023-05-13T11:13:20;17.20;69.30
12386;DHT22;6257;57.634;18.310;2023-05-13T11:15:50;17.10;69.60
12386;DHT22;6257;57.634;18.310;2023-05-13T11:18:17;17.00;69.60
12386;DHT22;6257;57.634;18.310;2023-05-13T11:20:46;16.90;69.40
12386;DHT22;6257;57.634;18.310;2023-05-13T11:23:17;16.90;67.90
12386;DHT22;6257;57.634;18.310;2023-05-13T11:25:46;16.80;69.30
12386;DHT22;6257;57.634;18.310;2023-05-13T11:28:16;16.90;68.50
12386;DHT22;6257;57.634;18.310;2023-05-13T11:30:53;17.00;69.70
12386;DHT22;6257;57.634;18.310;2023-05-13T11:33:21;17.20;68.40
12386;DHT22;6257;57.634;18.310;2023-05-13T11:35:55;17.20;69.90
12386;DHT22;6257;57.634;18.310;2023-05-13T11:38:23;17.20;71.60
12386;DHT22;6257;57.634;18.310;2023-05-13T11:40:54;17.20;69.70
12386;DHT22;6257;57.634;18.310;2023-05-13T11:43:22;17.20;71.30
12386;DHT22;6257;57.634;18.310;2023-05-13T11:45:50;17.20;70.00
12386;DHT22;6257;57.634;18.310;2023-05-13T11:48:19;17.20;72.30
12386;DHT22;6257;57.634;18.310;2023-05-13T11:50:48;17.20;73.90
12386;DHT22;6257;57.634;18.310;2023-05-13T11:53:18;17.30;70.60
12386;DHT22;6257;57.634;18.310;2023-05-13T12:00:43;17.30;69.60
12386;DHT22;6257;57.634;18.310;2023-05-13T12:03:10;17.30;70.10
12386;DHT22;6257;57.634;18.310;2023-05-13T12:05:40;17.40;70.30
12386;DHT22;6257;57.634;18.310;2023-05-13T12:08:09;17.40;70.60
12386;DHT22;6257;57.634;18.310;2023-05-13T12:10:41;17.50;70.20
12386;DHT22;6257;57.634;18.310;2023-05-13T12:13:08;17.50;71.40
12386;DHT22;6257;57.634;18.310;2023-05-13T12:18:05;17.80;68.30
12386;DHT22;6257;57.634;18.310;2023-05-13T12:20:33;17.80;68.30
12386;DHT22;6257;57.634;18.310;2023-05-13T12:23:00;17.90;68.70
12386;DHT22;6257;57.634;18.310;2023-05-13T12:25:36;17.90;69.60
12386;DHT22;6257;57.634;18.310;2023-05-13T12:28:11;18.00;68.90
12386;DHT22;6257;57.634;18.310;2023-05-13T12:30:47;18.00;69.00
12386;DHT22;6257;57.634;18.310;2023-05-13T12:33:16;18.00;70.30
12386;DHT22;6257;57.634;18.310;2023-05-13T12:35:45;18.00;69.30
12386;DHT22;6257;57.634;18.310;2023-05-13T12:38:14;17.70;69.70
12386;DHT22;6257;57.634;18.310;2023-05-13T12:40:43;17.70;70.30
12386;DHT22;6257;57.634;18.310;2023-05-13T12:43:11;17.60;69.80
12386;DHT22;6257;57.634;18.310;2023-05-13T12:45:40;17.60;69.00
12386;DHT22;6257;57.634;18.310;2023-05-13T12:48:09;17.50;70.80
12386;DHT22;6257;57.634;18.310;2023-05-13T12:50:36;17.50;70.00
12386;DHT22;6257;57.634;18.310;2023-05-13T12:53:04;17.60;70.50
12386;DHT22;6257;57.634;18.310;2023-05-13T12:55:31;17.60;69.80
12386;DHT22;6257;57.634;18.310;2023-05-13T12:58:02;17.80;69.70
12386;DHT22;6257;57.634;18.310;2023-05-13T13:00:29;17.80;72.40
12386;DHT22;6257;57.634;18.310;2023-05-13T13:02:57;17.80;68.20
12386;DHT22;6257;57.634;18.310;2023-05-13T13:05:25;17.90;69.90
12386;DHT22;6257;57.634;18.310;2023-05-13T13:07:52;18.00;70.10
12386;DHT22;6257;57.634;18.310;2023-05-13T13:10:20;18.10;71.80
12386;DHT22;6257;57.634;18.310;2023-05-13T13:12:47;18.10;71.80
12386;DHT22;6257;57.634;18.310;2023-05-13T13:15:15;18.20;70.60
12386;DHT22;6257;57.634;18.310;2023-05-13T13:17:42;18.30;69.80
12386;DHT22;6257;57.634;18.310;2023-05-13T13:22:38;18.20;67.50
12386;DHT22;6257;57.634;18.310;2023-05-13T13:25:06;18.20;70.10
12386;DHT22;6257;57.634;18.310;2023-05-13T13:27:33;18.20;67.80
12386;DHT22;6257;57.634;18.310;2023-05-13T13:30:00;18.10;68.50
12386;DHT22;6257;57.634;18.310;2023-05-13T13:34:55;18.20;68.70
12386;DHT22;6257;57.634;18.310;2023-05-13T13:37:22;18.10;71.30
12386;DHT22;6257;57.634;18.310;2023-05-13T13:39:51;18.10;69.70
12386;DHT22;6257;57.634;18.310;2023-05-13T13:42:18;18.10;71.80
12386;DHT22;6257;57.634;18.310;2023-05-13T13:44:46;18.30;68.30
12386;DHT22;6257;57.634;18.310;2023-05-13T13:47:14;18.20;71.00
12386;DHT22;6257;57.634;18.310;2023-05-13T13:49:41;18.30;68.80
12386;DHT22;6257;57.634;18.310;2023-05-13T13:52:08;16.90;67.40
12386;DHT22;6257;57.634;18.310;2023-05-13T13:54:35;18.20;72.40
12386;DHT22;6257;57.634;18.310;2023-05-13T13:57:04;18.30;71.30
12386;DHT22;6257;57.634;18.310;2023-05-13T13:59:31;18.30;71.30
12386;DHT22;6257;57.634;18.310;2023-05-13T14:01:58;18.20;70.00
12386;DHT22;6257;57.634;18.310;2023-05-13T14:04:25;18.30;71.40
12386;DHT22;6257;57.634;18.310;2023-05-13T14:06:54;18.10;71.80
12386;DHT22;6257;57.634;18.310;2023-05-13T14:09:22;18.10;71.20
12386;DHT22;6257;57.634;18.310;2023-05-13T14:11:49;18.20;72.60
12386;DHT22;6257;57.634;18.310;2023-05-13T14:14:17;18.30;74.00
12386;DHT22;6257;57.634;18.310;2023-05-13T14:16:45;18.40;72.80
12386;DHT22;6257;57.634;18.310;2023-05-13T14:19:12;18.50;71.10
12386;DHT22;6257;57.634;18.310;2023-05-13T14:21:39;18.30;72.80
12386;DHT22;6257;57.634;18.310;2023-05-13T15:04:15;18.20;72.10
12386;DHT22;6257;57.634;18.310;2023-05-13T15:06:43;18.20;72.90
12386;DHT22;6257;57.634;18.310;2023-05-13T15:09:10;18.20;72.60
12386;DHT22;6257;57.634;18.310;2023-05-13T15:11:37;18.30;74.40
12386;DHT22;6257;57.634;18.310;2023-05-13T15:14:06;18.30;75.00
12386;DHT22;6257;57.634;18.310;2023-05-13T15:16:33;18.30;75.30
12386;DHT22;6257;57.634;18.310;2023-05-13T15:19:00;18.30;75.80
12386;DHT22;6257;57.634;18.310;2023-05-13T15:21:29;18.30;74.80
12386;DHT22;6257;57.634;18.310;2023-05-13T15:23:56;18.40;76.50
12386;DHT22;6257;57.634;18.310;2023-05-13T15:28:51;18.50;75.90
12386;DHT22;6257;57.634;18.310;2023-05-13T15:31:18;18.50;77.80
12386;DHT22;6257;57.634;18.310;2023-05-13T15:33:45;18.40;77.50
12386;DHT22;6257;57.634;18.310;2023-05-13T15:36:12;18.50;76.40
12386;DHT22;6257;57.634;18.310;2023-05-13T15:51:26;18.90;76.50
12386;DHT22;6257;57.634;18.310;2023-05-13T15:56:22;19.00;69.80
12386;DHT22;6257;57.634;18.310;2023-05-13T15:58:50;19.10;71.20
12386;DHT22;6257;57.634;18.310;2023-05-13T16:01:17;19.20;70.50
12386;DHT22;6257;57.634;18.310;2023-05-13T16:03:44;19.30;68.00
12386;DHT22;6257;57.634;18.310;2023-05-13T16:06:11;19.40;66.70
12386;DHT22;6257;57.634;18.310;2023-05-13T16:08:38;19.40;63.90
12386;DHT22;6257;57.634;18.310;2023-05-13T16:13:37;19.40;64.70
12386;DHT22;6257;57.634;18.310;2023-05-13T16:16:04;19.40;64.70
12386;DHT22;6257;57.634;18.310;2023-05-13T16:18:32;19.40;67.20
12386;DHT22;6257;57.634;18.310;2023-05-13T16:20:59;19.30;68.30
12386;DHT22;6257;57.634;18.310;2023-05-13T16:23:26;19.30;70.00
12386;DHT22;6257;57.634;18.310;2023-05-13T16:25:53;19.20;69.70
12386;DHT22;6257;57.634;18.310;2023-05-13T16:30:49;19.10;69.00
12386;DHT22;6257;57.634;18.310;2023-05-13T16:33:16;19.10;70.10
12386;DHT22;6257;57.634;18.310;2023-05-13T16:35:43;19.10;71.40
12386;DHT22;6257;57.634;18.310;2023-05-13T16:38:10;19.10;68.30
12386;DHT22;6257;57.634;18.310;2023-05-13T16:40:37;19.10;68.20
12386;DHT22;6257;57.634;18.310;2023-05-13T16:43:05;19.10;68.40
12386;DHT22;6257;57.634;18.310;2023-05-13T16:45:33;19.10;68.30
12386;DHT22;6257;57.634;18.310;2023-05-13T16:48:00;19.00;68.20
12386;DHT22;6257;57.634;18.310;2023-05-13T16:50:28;19.00;68.10
12386;DHT22;6257;57.634;18.310;2023-05-13T16:52:56;19.00;68.00
12386;DHT22;6257;57.634;18.310;2023-05-13T16:55:22;19.00;65.50
12386;DHT22;6257;57.634;18.310;2023-05-13T16:57:50;20.60;68.10
12386;DHT22;6257;57.634;18.310;2023-05-13T17:00:18;19.00;65.90
12386;DHT22;6257;57.634;18.310;2023-05-13T17:05:14;18.90;66.60
12386;DHT22;6257;57.634;18.310;2023-05-13T17:07:43;18.80;66.60
12386;DHT22;6257;57.634;18.310;2023-05-13T17:10:10;18.80;66.50
12386;DHT22;6257;57.634;18.310;2023-05-13T17:12:37;18.60;68.00
12386;DHT22;6257;57.634;18.310;2023-05-13T17:15:05;18.60;66.50
12386;DHT22;6257;57.634;18.310;2023-05-13T17:17:32;18.50;68.80
12386;DHT22;6257;57.634;18.310;2023-05-13T17:20:01;18.40;69.40
12386;DHT22;6257;57.634;18.310;2023-05-13T17:22:28;18.40;68.30
12386;DHT22;6257;57.634;18.310;2023-05-13T17:24:55;18.30;68.80
12386;DHT22;6257;57.634;18.310;2023-05-13T17:27:22;18.20;68.60
12386;DHT22;6257;57.634;18.310;2023-05-13T17:29:49;18.20;68.00
12386;DHT22;6257;57.634;18.310;2023-05-13T17:32:16;18.20;67.50
12386;DHT22;6257;57.634;18.310;2023-05-13T17:34:43;18.10;67.60
12386;DHT22;6257;57.634;18.310;2023-05-13T17:37:12;18.20;68.40
12386;DHT22;6257;57.634;18.310;2023-05-13T17:39:39;18.10;69.20
12386;DHT22;6257;57.634;18.310;2023-05-13T17:42:06;18.00;69.00
12386;DHT22;6257;57.634;18.310;2023-05-13T17:44:33;17.90;69.10
12386;DHT22;6257;57.634;18.310;2023-05-13T17:47:00;17.80;69.30
12386;DHT22;6257;57.634;18.310;2023-05-13T17:49:27;17.80;70.80
12386;DHT22;6257;57.634;18.310;2023-05-13T17:51:54;17.70;70.00
12386;DHT22;6257;57.634;18.310;2023-05-13T17:54:23;17.60;71.30
12386;DHT22;6257;57.634;18.310;2023-05-13T17:56:50;17.50;69.60
12386;DHT22;6257;57.634;18.310;2023-05-13T17:59:17;17.50;70.40
12386;DHT22;6257;57.634;18.310;2023-05-13T18:01:44;17.40;71.00
12386;DHT22;6257;57.634;18.310;2023-05-13T18:04:11;17.30;70.50
12386;DHT22;6257;57.634;18.310;2023-05-13T18:06:38;17.10;71.80
12386;DHT22;6257;57.634;18.310;2023-05-13T18:09:06;17.00;72.10
12386;DHT22;6257;57.634;18.310;2023-05-13T18:14:02;16.90;72.80
12386;DHT22;6257;57.634;18.310;2023-05-13T18:16:29;16.80;74.10
12386;DHT22;6257;57.634;18.310;2023-05-13T18:18:56;16.60;75.20
12386;DHT22;6257;57.634;18.310;2023-05-13T18:21:25;16.30;76.50
12386;DHT22;6257;57.634;18.310;2023-05-13T18:23:54;16.20;78.00
12386;DHT22;6257;57.634;18.310;2023-05-13T18:26:21;16.00;77.50
12386;DHT22;6257;57.634;18.310;2023-05-13T18:28:50;16.10;77.80
12386;DHT22;6257;57.634;18.310;2023-05-13T18:31:17;16.10;77.70
12386;DHT22;6257;57.634;18.310;2023-05-13T18:33:44;15.90;78.90
12386;DHT22;6257;57.634;18.310;2023-05-13T18:36:11;15.80;80.70
12386;DHT22;6257;57.634;18.310;2023-05-13T18:38:38;15.80;80.10
12386;DHT22;6257;57.634;18.310;2023-05-13T18:41:05;15.70;79.90
12386;DHT22;6257;57.634;18.310;2023-05-13T18:43:32;15.50;78.50
12386;DHT22;6257;57.634;18.310;2023-05-13T18:46:01;15.50;79.00
12386;DHT22;6257;57.634;18.310;2023-05-13T18:48:28;15.40;78.30
12386;DHT22;6257;57.634;18.310;2023-05-13T18:50:55;15.40;79.80
12386;DHT22;6257;57.634;18.310;2023-05-13T18:53:22;15.20;79.00
12386;DHT22;6257;57.634;18.310;2023-05-13T18:55:49;15.20;78.50
12386;DHT22;6257;57.634;18.310;2023-05-13T18:58:17;15.10;79.10
12386;DHT22;6257;57.634;18.310;2023-05-13T19:00:44;14.90;79.50
12386;DHT22;6257;57.634;18.310;2023-05-13T19:03:12;14.80;78.60
12386;DHT22;6257;57.634;18.310;2023-05-13T19:05:39;14.70;80.00
12386;DHT22;6257;57.634;18.310;2023-05-13T19:08:06;14.60;80.80
12386;DHT22;6257;57.634;18.310;2023-05-13T19:10:33;14.40;82.70
12386;DHT22;6257;57.634;18.310;2023-05-13T19:13:01;14.20;83.20
12386;DHT22;6257;57.634;18.310;2023-05-13T19:15:28;14.00;85.00
12386;DHT22;6257;57.634;18.310;2023-05-13T19:17:55;13.90;85.30
12386;DHT22;6257;57.634;18.310;2023-05-13T19:20:23;13.80;87.30
12386;DHT22;6257;57.634;18.310;2023-05-13T19:22:51;13.70;88.20
12386;DHT22;6257;57.634;18.310;2023-05-13T19:25:19;13.60;88.40